sensor_id;sensor_type;location;lat;lon;timestamp;temperature;humidity
80250;DHT22;69561;37.974;23.708;2023-09-07T00:01:31;27.20;56.60
80250;DHT22;69561;37.974;23.708;2023-09-07T00:03:57;27.30;56.70
80250;DHT22;69561;37.974;23.708;2023-09-07T00:06:22;27.20;56.60
80250;DHT22;69561;37.974;23.708;2023-09-07T00:08:48;27.20;56.60
80250;DHT22;69561;37.974;23.708;2023-09-07T00:11:14;27.30;56.70
80250;DHT22;69561;37.974;23.708;2023-09-07T00:13:40;27.20;56.60
80250;DHT22;69561;37.974;23.708;2023-09-07T00:16:06;27.30;56.60
80250;DHT22;69561;37.974;23.708;2023-09-07T00:18:33;27.30;56.70
80250;DHT22;69561;37.974;23.708;2023-09-07T00:21:00;27.20;56.50
80250;DHT22;69561;37.974;23.708;2023-09-07T00:23:26;27.20;56.50
80250;DHT22;69561;37.974;23.708;2023-09-07T00:25:52;27.20;56.50
80250;DHT22;69561;37.974;23.708;2023-09-07T00:28:18;27.20;56.50
80250;DHT22;69561;37.974;23.708;2023-09-07T00:30:44;27.30;56.50
80250;DHT22;69561;37.974;23.708;2023-09-07T00:33:10;27.20;56.40
80250;DHT22;69561;37.974;23.708;2023-09-07T00:35:36;27.20;56.40
80250;DHT22;69561;37.974;23.708;2023-09-07T00:38:02;27.30;56.40
80250;DHT22;69561;37.974;23.708;2023-09-07T00:40:28;27.20;56.40
80250;DHT22;69561;37.974;23.708;2023-09-07T00:42:54;27.30;56.40
80250;DHT22;69561;37.974;23.708;2023-09-07T00:45:20;27.30;56.40
80250;DHT22;69561;37.974;23.708;2023-09-07T00:47:46;27.20;56.30
80250;DHT22;69561;37.974;23.708;2023-09-07T00:50:12;27.20;56.30
80250;DHT22;69561;37.974;23.708;2023-09-07T00:52:45;27.30;56.40
80250;DHT22;69561;37.974;23.708;2023-09-07T00:55:13;27.30;56.40
80250;DHT22;69561;37.974;23.708;2023-09-07T00:57:39;27.20;56.20
80250;DHT22;69561;37.974;23.708;2023-09-07T01:00:06;27.20;56.20
80250;DHT22;69561;37.974;23.708;2023-09-07T01:02:33;27.20;56.20
80250;DHT22;69561;37.974;23.708;2023-09-07T01:04:59;27.20;56.20
80250;DHT22;69561;37.974;23.708;2023-09-07T01:07:38;27.20;56.20
80250;DHT22;69561;37.974;23.708;2023-09-07T01:10:06;27.20;56.20
80250;DHT22;69561;37.974;23.708;2023-09-07T01:12:33;27.30;56.30
80250;DHT22;69561;37.974;23.708;2023-09-07T01:14:59;27.30;56.20
80250;DHT22;69561;37.974;23.708;2023-09-07T01:17:26;27.30;56.20
80250;DHT22;69561;37.974;23.708;2023-09-07T01:19:53;27.30;56.20
80250;DHT22;69561;37.974;23.708;2023-09-07T01:22:20;27.30;56.20
80250;DHT22;69561;37.974;23.708;2023-09-07T01:24:50;27.20;56.10
80250;DHT22;69561;37.974;23.708;2023-09-07T01:27:18;27.20;56.10
80250;DHT22;69561;37.974;23.708;2023-09-07T01:29:44;27.30;56.10
80250;DHT22;69561;37.974;23.708;2023-09-07T01:32:10;27.20;56.00
80250;DHT22;69561;37.974;23.708;2023-09-07T01:34:37;27.30;56.10
80250;DHT22;69561;37.974;23.708;2023-09-07T01:37:03;27.30;56.10
80250;DHT22;69561;37.974;23.708;2023-09-07T01:39:29;27.30;56.00
80250;DHT22;69561;37.974;23.708;2023-09-07T01:41:54;27.30;56.00
80250;DHT22;69561;37.974;23.708;2023-09-07T01:44:20;27.30;56.10
80250;DHT22;69561;37.974;23.708;2023-09-07T01:46:46;27.30;56.00
80250;DHT22;69561;37.974;23.708;2023-09-07T01:49:12;27.20;55.90
80250;DHT22;69561;37.974;23.708;2023-09-07T01:51:38;27.30;56.00
80250;DHT22;69561;37.974;23.708;2023-09-07T01:54:04;27.20;56.00
80250;DHT22;69561;37.974;23.708;2023-09-07T01:56:30;27.30;56.00
80250;DHT22;69561;37.974;23.708;2023-09-07T01:58:56;27.30;56.00
80250;DHT22;69561;37.974;23.708;2023-09-07T02:01:27;27.30;55.90
80250;DHT22;69561;37.974;23.708;2023-09-07T02:03:55;27.30;55.90
80250;DHT22;69561;37.974;23.708;2023-09-07T02:06:20;27.20;55.80
80250;DHT22;69561;37.974;23.708;2023-09-07T02:08:46;27.30;55.90
80250;DHT22;69561;37.974;23.708;2023-09-07T02:11:12;27.20;55.80
80250;DHT22;69561;37.974;23.708;2023-09-07T02:13:41;27.20;55.80
80250;DHT22;69561;37.974;23.708;2023-09-07T02:16:08;27.20;55.80
80250;DHT22;69561;37.974;23.708;2023-09-07T02:18:35;27.30;55.90
80250;DHT22;69561;37.974;23.708;2023-09-07T02:21:05;27.30;55.90
80250;DHT22;69561;37.974;23.708;2023-09-07T02:23:32;27.20;55.80
80250;DHT22;69561;37.974;23.708;2023-09-07T02:25:58;27.30;55.90
80250;DHT22;69561;37.974;23.708;2023-09-07T02:28:25;27.30;55.90
80250;DHT22;69561;37.974;23.708;2023-09-07T02:30:52;27.20;55.80
80250;DHT22;69561;37.974;23.708;2023-09-07T02:33:18;27.20;55.80
80250;DHT22;69561;37.974;23.708;2023-09-07T02:35:43;27.20;55.80
80250;DHT22;69561;37.974;23.708;2023-09-07T02:38:09;27.30;55.90
80250;DHT22;69561;37.974;23.708;2023-09-07T02:40:42;27.20;55.80
80250;DHT22;69561;37.974;23.708;2023-09-07T02:43:12;27.20;55.70
80250;DHT22;69561;37.974;23.708;2023-09-07T02:45:38;27.20;55.70
80250;DHT22;69561;37.974;23.708;2023-09-07T02:48:05;27.30;55.80
80250;DHT22;69561;37.974;23.708;2023-09-07T02:50:33;27.20;55.70
80250;DHT22;69561;37.974;23.708;2023-09-07T02:53:00;27.30;55.70
80250;DHT22;69561;37.974;23.708;2023-09-07T02:55:27;27.20;55.60
80250;DHT22;69561;37.974;23.708;2023-09-07T02:57:52;27.20;55.60
80250;DHT22;69561;37.974;23.708;2023-09-07T03:00:20;27.30;55.70
80250;DHT22;69561;37.974;23.708;2023-09-07T03:02:47;27.30;55.70
80250;DHT22;69561;37.974;23.708;2023-09-07T03:05:14;27.30;55.60
80250;DHT22;69561;37.974;23.708;2023-09-07T03:07:40;27.30;55.60
80250;DHT22;69561;37.974;23.708;2023-09-07T03:10:06;27.20;55.50
80250;DHT22;69561;37.974;23.708;2023-09-07T03:12:33;27.30;55.60
80250;DHT22;69561;37.974;23.708;2023-09-07T03:14:59;27.20;55.40
80250;DHT22;69561;37.974;23.708;2023-09-07T03:17:29;27.20;55.40
80250;DHT22;69561;37.974;23.708;2023-09-07T03:19:55;27.30;55.50
80250;DHT22;69561;37.974;23.708;2023-09-07T03:22:22;27.30;55.50
80250;DHT22;69561;37.974;23.708;2023-09-07T03:24:52;27.30;55.50
80250;DHT22;69561;37.974;23.708;2023-09-07T03:27:18;27.20;55.40
80250;DHT22;69561;37.974;23.708;2023-09-07T03:29:49;27.30;55.40
80250;DHT22;69561;37.974;23.708;2023-09-07T03:32:17;27.20;55.30
80250;DHT22;69561;37.974;23.708;2023-09-07T03:34:43;27.30;55.40
80250;DHT22;69561;37.974;23.708;2023-09-07T03:37:08;27.20;55.30
80250;DHT22;69561;37.974;23.708;2023-09-07T03:39:37;27.30;55.30
80250;DHT22;69561;37.974;23.708;2023-09-07T03:42:03;27.30;55.40
80250;DHT22;69561;37.974;23.708;2023-09-07T03:44:28;27.20;55.30
80250;DHT22;69561;37.974;23.708;2023-09-07T03:46:54;27.20;55.30
80250;DHT22;69561;37.974;23.708;2023-09-07T03:49:20;27.20;55.30
80250;DHT22;69561;37.974;23.708;2023-09-07T03:51:46;27.20;55.30
80250;DHT22;69561;37.974;23.708;2023-09-07T03:54:12;27.30;55.30
80250;DHT22;69561;37.974;23.708;2023-09-07T03:56:37;27.20;55.30
80250;DHT22;69561;37.974;23.708;2023-09-07T03:59:04;27.30;55.40
80250;DHT22;69561;37.974;23.708;2023-09-07T04:01:30;27.30;55.40
80250;DHT22;69561;37.974;23.708;2023-09-07T04:03:56;27.30;55.40
80250;DHT22;69561;37.974;23.708;2023-09-07T04:06:22;27.20;55.30
80250;DHT22;69561;37.974;23.708;2023-09-07T04:08:49;27.20;55.30
80250;DHT22;69561;37.974;23.708;2023-09-07T04:11:15;27.30;55.30
80250;DHT22;69561;37.974;23.708;2023-09-07T04:13:41;27.20;55.20
80250;DHT22;69561;37.974;23.708;2023-09-07T04:16:08;27.20;55.20
80250;DHT22;69561;37.974;23.708;2023-09-07T04:18:35;27.20;55.20
80250;DHT22;69561;37.974;23.708;2023-09-07T04:21:08;27.30;55.30
80250;DHT22;69561;37.974;23.708;2023-09-07T04:23:34;27.20;55.20
80250;DHT22;69561;37.974;23.708;2023-09-07T04:26:11;27.30;55.20
80250;DHT22;69561;37.974;23.708;2023-09-07T04:28:38;27.20;55.20
80250;DHT22;69561;37.974;23.708;2023-09-07T04:31:06;27.30;55.30
80250;DHT22;69561;37.974;23.708;2023-09-07T04:33:33;27.20;55.20
80250;DHT22;69561;37.974;23.708;2023-09-07T04:36:13;27.20;55.20
80250;DHT22;69561;37.974;23.708;2023-09-07T04:38:39;27.30;55.20
80250;DHT22;69561;37.974;23.708;2023-09-07T04:41:09;27.20;55.10
80250;DHT22;69561;37.974;23.708;2023-09-07T04:43:36;27.30;55.10
80250;DHT22;69561;37.974;23.708;2023-09-07T04:46:02;27.30;54.90
80250;DHT22;69561;37.974;23.708;2023-09-07T04:48:28;27.30;54.90
80250;DHT22;69561;37.974;23.708;2023-09-07T04:51:02;27.20;54.90
80250;DHT22;69561;37.974;23.708;2023-09-07T04:53:30;27.30;54.90
80250;DHT22;69561;37.974;23.708;2023-09-07T04:55:57;27.20;55.20
80250;DHT22;69561;37.974;23.708;2023-09-07T04:58:23;27.20;55.70
80250;DHT22;69561;37.974;23.708;2023-09-07T05:00:49;27.20;56.10
80250;DHT22;69561;37.974;23.708;2023-09-07T05:03:15;27.10;56.50
80250;DHT22;69561;37.974;23.708;2023-09-07T05:05:43;27.10;56.80
80250;DHT22;69561;37.974;23.708;2023-09-07T05:08:09;27.00;56.90
80250;DHT22;69561;37.974;23.708;2023-09-07T05:10:36;27.00;57.20
80250;DHT22;69561;37.974;23.708;2023-09-07T05:13:02;27.00;57.20
80250;DHT22;69561;37.974;23.708;2023-09-07T05:15:28;27.00;57.20
80250;DHT22;69561;37.974;23.708;2023-09-07T05:17:55;26.90;57.00
80250;DHT22;69561;37.974;23.708;2023-09-07T05:20:21;26.90;57.00
80250;DHT22;69561;37.974;23.708;2023-09-07T05:22:48;26.90;56.80
80250;DHT22;69561;37.974;23.708;2023-09-07T05:25:14;26.80;56.70
80250;DHT22;69561;37.974;23.708;2023-09-07T05:27:39;26.80;56.60
80250;DHT22;69561;37.974;23.708;2023-09-07T05:30:07;26.80;56.60
80250;DHT22;69561;37.974;23.708;2023-09-07T05:32:33;26.80;56.60
80250;DHT22;69561;37.974;23.708;2023-09-07T05:34:59;26.80;56.50
80250;DHT22;69561;37.974;23.708;2023-09-07T05:37:25;26.80;56.40
80250;DHT22;69561;37.974;23.708;2023-09-07T05:39:50;26.70;56.30
80250;DHT22;69561;37.974;23.708;2023-09-07T05:42:16;26.80;56.30
80250;DHT22;69561;37.974;23.708;2023-09-07T05:44:42;26.70;56.00
80250;DHT22;69561;37.974;23.708;2023-09-07T05:47:08;26.70;56.10
80250;DHT22;69561;37.974;23.708;2023-09-07T05:49:34;26.70;56.20
80250;DHT22;69561;37.974;23.708;2023-09-07T05:51:59;26.70;56.20
80250;DHT22;69561;37.974;23.708;2023-09-07T05:54:25;26.70;56.20
80250;DHT22;69561;37.974;23.708;2023-09-07T05:56:51;26.70;56.10
80250;DHT22;69561;37.974;23.708;2023-09-07T05:59:17;26.70;56.10
80250;DHT22;69561;37.974;23.708;2023-09-07T06:01:44;26.70;56.10
80250;DHT22;69561;37.974;23.708;2023-09-07T06:04:10;26.60;56.00
80250;DHT22;69561;37.974;23.708;2023-09-07T06:06:35;26.60;56.00
80250;DHT22;69561;37.974;23.708;2023-09-07T06:09:01;26.70;56.10
80250;DHT22;69561;37.974;23.708;2023-09-07T06:11:29;26.60;56.10
80250;DHT22;69561;37.974;23.708;2023-09-07T06:13:57;26.60;56.00
80250;DHT22;69561;37.974;23.708;2023-09-07T06:16:23;26.60;56.10
80250;DHT22;69561;37.974;23.708;2023-09-07T06:18:49;26.60;56.20
80250;DHT22;69561;37.974;23.708;2023-09-07T06:21:15;26.60;56.20
80250;DHT22;69561;37.974;23.708;2023-09-07T06:23:40;26.60;56.10
80250;DHT22;69561;37.974;23.708;2023-09-07T06:26:07;26.60;56.20
80250;DHT22;69561;37.974;23.708;2023-09-07T06:28:33;26.60;56.20
80250;DHT22;69561;37.974;23.708;2023-09-07T06:30:59;26.60;56.10
80250;DHT22;69561;37.974;23.708;2023-09-07T06:33:25;26.60;56.10
80250;DHT22;69561;37.974;23.708;2023-09-07T06:35:50;26.60;56.10
80250;DHT22;69561;37.974;23.708;2023-09-07T06:38:16;26.60;56.10
80250;DHT22;69561;37.974;23.708;2023-09-07T06:40:50;26.60;56.20
80250;DHT22;69561;37.974;23.708;2023-09-07T06:43:16;26.50;56.10
80250;DHT22;69561;37.974;23.708;2023-09-07T06:45:42;26.50;56.10
80250;DHT22;69561;37.974;23.708;2023-09-07T06:48:08;26.60;56.00
80250;DHT22;69561;37.974;23.708;2023-09-07T06:50:34;26.60;56.00
80250;DHT22;69561;37.974;23.708;2023-09-07T06:52:59;26.60;56.00
80250;DHT22;69561;37.974;23.708;2023-09-07T06:55:25;26.60;56.10
80250;DHT22;69561;37.974;23.708;2023-09-07T06:57:53;26.60;56.00
80250;DHT22;69561;37.974;23.708;2023-09-07T07:00:19;26.60;56.00
80250;DHT22;69561;37.974;23.708;2023-09-07T07:02:45;26.60;56.00
80250;DHT22;69561;37.974;23.708;2023-09-07T07:05:10;26.60;56.00
80250;DHT22;69561;37.974;23.708;2023-09-07T07:07:36;26.50;56.00
80250;DHT22;69561;37.974;23.708;2023-09-07T07:10:02;26.50;56.00
80250;DHT22;69561;37.974;23.708;2023-09-07T07:12:29;26.50;56.00
80250;DHT22;69561;37.974;23.708;2023-09-07T07:14:54;26.50;56.00
80250;DHT22;69561;37.974;23.708;2023-09-07T07:17:20;26.50;56.10
80250;DHT22;69561;37.974;23.708;2023-09-07T07:19:47;26.50;56.10
80250;DHT22;69561;37.974;23.708;2023-09-07T07:22:13;26.40;56.70
80250;DHT22;69561;37.974;23.708;2023-09-07T07:24:39;26.50;57.50
80250;DHT22;69561;37.974;23.708;2023-09-07T07:27:05;26.50;57.50
80250;DHT22;69561;37.974;23.708;2023-09-07T07:29:31;26.50;58.20
80250;DHT22;69561;37.974;23.708;2023-09-07T07:31:57;26.50;58.10
80250;DHT22;69561;37.974;23.708;2023-09-07T07:34:23;26.60;58.00
80250;DHT22;69561;37.974;23.708;2023-09-07T07:36:49;26.70;58.30
80250;DHT22;69561;37.974;23.708;2023-09-07T07:39:15;26.80;58.60
80250;DHT22;69561;37.974;23.708;2023-09-07T07:41:41;26.70;58.30
80250;DHT22;69561;37.974;23.708;2023-09-07T07:44:07;26.80;58.60
80250;DHT22;69561;37.974;23.708;2023-09-07T07:46:33;26.80;58.60
80250;DHT22;69561;37.974;23.708;2023-09-07T07:48:59;26.90;58.60
80250;DHT22;69561;37.974;23.708;2023-09-07T07:51:25;26.90;58.60
80250;DHT22;69561;37.974;23.708;2023-09-07T07:53:54;26.90;58.70
80250;DHT22;69561;37.974;23.708;2023-09-07T07:56:20;26.90;59.20
80250;DHT22;69561;37.974;23.708;2023-09-07T07:58:46;26.90;59.00
80250;DHT22;69561;37.974;23.708;2023-09-07T08:01:19;26.90;59.30
80250;DHT22;69561;37.974;23.708;2023-09-07T08:03:49;26.80;59.10
80250;DHT22;69561;37.974;23.708;2023-09-07T08:06:14;26.70;59.50
80250;DHT22;69561;37.974;23.708;2023-09-07T08:08:40;26.70;59.50
80250;DHT22;69561;37.974;23.708;2023-09-07T08:11:07;26.60;59.80
80250;DHT22;69561;37.974;23.708;2023-09-07T08:13:33;26.50;60.20
80250;DHT22;69561;37.974;23.708;2023-09-07T08:16:03;26.50;60.30
80250;DHT22;69561;37.974;23.708;2023-09-07T08:18:29;26.60;60.20
80250;DHT22;69561;37.974;23.708;2023-09-07T08:20:58;26.60;60.20
80250;DHT22;69561;37.974;23.708;2023-09-07T08:23:24;26.70;59.80
80250;DHT22;69561;37.974;23.708;2023-09-07T08:25:53;26.80;60.70
80250;DHT22;69561;37.974;23.708;2023-09-07T08:28:19;26.80;59.40
80250;DHT22;69561;37.974;23.708;2023-09-07T08:30:49;26.90;59.20
80250;DHT22;69561;37.974;23.708;2023-09-07T08:33:17;26.90;59.10
80250;DHT22;69561;37.974;23.708;2023-09-07T08:35:42;26.90;59.20
80250;DHT22;69561;37.974;23.708;2023-09-07T08:38:12;26.90;59.00
80250;DHT22;69561;37.974;23.708;2023-09-07T08:40:38;27.00;59.00
80250;DHT22;69561;37.974;23.708;2023-09-07T08:43:08;26.90;58.90
80250;DHT22;69561;37.974;23.708;2023-09-07T08:45:41;27.00;58.80
80250;DHT22;69561;37.974;23.708;2023-09-07T08:48:11;27.00;58.90
80250;DHT22;69561;37.974;23.708;2023-09-07T08:50:40;27.00;58.70
80250;DHT22;69561;37.974;23.708;2023-09-07T08:53:08;27.00;58.40
80250;DHT22;69561;37.974;23.708;2023-09-07T08:55:34;27.00;58.10
80250;DHT22;69561;37.974;23.708;2023-09-07T08:58:00;27.10;58.60
80250;DHT22;69561;37.974;23.708;2023-09-07T09:00:25;27.10;58.40
80250;DHT22;69561;37.974;23.708;2023-09-07T09:02:51;27.10;58.40
80250;DHT22;69561;37.974;23.708;2023-09-07T09:05:20;27.10;58.30
80250;DHT22;69561;37.974;23.708;2023-09-07T09:07:46;27.10;58.40
80250;DHT22;69561;37.974;23.708;2023-09-07T09:10:11;27.10;58.20
80250;DHT22;69561;37.974;23.708;2023-09-07T09:12:45;27.20;58.10
80250;DHT22;69561;37.974;23.708;2023-09-07T09:15:12;27.30;58.10
80250;DHT22;69561;37.974;23.708;2023-09-07T09:17:38;27.20;58.10
80250;DHT22;69561;37.974;23.708;2023-09-07T09:20:04;27.30;58.40
80250;DHT22;69561;37.974;23.708;2023-09-07T09:22:35;27.20;58.70
80250;DHT22;69561;37.974;23.708;2023-09-07T09:25:04;27.20;58.70
80250;DHT22;69561;37.974;23.708;2023-09-07T09:27:30;27.20;58.90
80250;DHT22;69561;37.974;23.708;2023-09-07T09:29:57;27.20;58.50
80250;DHT22;69561;37.974;23.708;2023-09-07T09:32:24;27.30;58.30
80250;DHT22;69561;37.974;23.708;2023-09-07T09:34:50;27.30;57.90
80250;DHT22;69561;37.974;23.708;2023-09-07T09:37:17;27.30;57.70
80250;DHT22;69561;37.974;23.708;2023-09-07T09:39:49;27.30;57.60
80250;DHT22;69561;37.974;23.708;2023-09-07T09:42:16;27.40;57.60
80250;DHT22;69561;37.974;23.708;2023-09-07T09:44:43;27.40;57.60
80250;DHT22;69561;37.974;23.708;2023-09-07T09:47:10;27.40;57.50
80250;DHT22;69561;37.974;23.708;2023-09-07T09:49:40;27.40;57.70
80250;DHT22;69561;37.974;23.708;2023-09-07T09:52:07;27.40;57.80
80250;DHT22;69561;37.974;23.708;2023-09-07T09:54:35;27.40;57.80
80250;DHT22;69561;37.974;23.708;2023-09-07T09:57:01;27.30;57.80
80250;DHT22;69561;37.974;23.708;2023-09-07T09:59:27;27.30;57.80
80250;DHT22;69561;37.974;23.708;2023-09-07T10:01:53;27.40;57.60
80250;DHT22;69561;37.974;23.708;2023-09-07T10:04:20;27.40;57.60
80250;DHT22;69561;37.974;23.708;2023-09-07T10:06:56;27.40;57.50
80250;DHT22;69561;37.974;23.708;2023-09-07T10:09:22;27.40;57.30
80250;DHT22;69561;37.974;23.708;2023-09-07T10:11:52;27.40;57.30
80250;DHT22;69561;37.974;23.708;2023-09-07T10:14:19;27.40;57.30
80250;DHT22;69561;37.974;23.708;2023-09-07T10:16:49;27.40;57.20
80250;DHT22;69561;37.974;23.708;2023-09-07T10:19:21;27.40;57.10
80250;DHT22;69561;37.974;23.708;2023-09-07T10:21:47;27.40;57.10
80250;DHT22;69561;37.974;23.708;2023-09-07T10:24:33;27.40;57.10
80250;DHT22;69561;37.974;23.708;2023-09-07T10:27:08;27.40;57.20
80250;DHT22;69561;37.974;23.708;2023-09-07T10:29:46;27.40;57.30
80250;DHT22;69561;37.974;23.708;2023-09-07T10:32:15;27.40;57.20
80250;DHT22;69561;37.974;23.708;2023-09-07T10:34:42;27.40;57.10
80250;DHT22;69561;37.974;23.708;2023-09-07T10:37:14;27.40;56.90
80250;DHT22;69561;37.974;23.708;2023-09-07T10:39:42;27.40;56.80
80250;DHT22;69561;37.974;23.708;2023-09-07T10:42:23;27.40;56.80
80250;DHT22;69561;37.974;23.708;2023-09-07T10:44:50;27.50;56.80
80250;DHT22;69561;37.974;23.708;2023-09-07T10:47:16;27.40;56.90
80250;DHT22;69561;37.974;23.708;2023-09-07T10:49:42;27.50;57.20
80250;DHT22;69561;37.974;23.708;2023-09-07T10:52:08;27.50;57.20
80250;DHT22;69561;37.974;23.708;2023-09-07T10:54:35;27.40;57.30
80250;DHT22;69561;37.974;23.708;2023-09-07T10:57:11;27.40;57.40
80250;DHT22;69561;37.974;23.708;2023-09-07T10:59:44;27.40;57.30
80250;DHT22;69561;37.974;23.708;2023-09-07T11:02:09;27.40;57.20
80250;DHT22;69561;37.974;23.708;2023-09-07T11:04:35;27.40;57.10
80250;DHT22;69561;37.974;23.708;2023-09-07T11:07:01;27.40;57.10
80250;DHT22;69561;37.974;23.708;2023-09-07T11:09:30;27.40;57.00
80250;DHT22;69561;37.974;23.708;2023-09-07T11:11:56;27.40;56.90
80250;DHT22;69561;37.974;23.708;2023-09-07T11:14:28;27.40;56.70
80250;DHT22;69561;37.974;23.708;2023-09-07T11:16:56;27.50;56.70
80250;DHT22;69561;37.974;23.708;2023-09-07T11:19:22;27.40;56.80
80250;DHT22;69561;37.974;23.708;2023-09-07T11:21:48;27.40;56.70
80250;DHT22;69561;37.974;23.708;2023-09-07T11:24:14;27.40;57.30
80250;DHT22;69561;37.974;23.708;2023-09-07T11:26:43;27.40;57.00
80250;DHT22;69561;37.974;23.708;2023-09-07T11:29:16;27.40;56.90
80250;DHT22;69561;37.974;23.708;2023-09-07T11:31:43;27.50;57.00
80250;DHT22;69561;37.974;23.708;2023-09-07T11:34:11;27.50;56.90
80250;DHT22;69561;37.974;23.708;2023-09-07T11:36:39;27.50;57.10
80250;DHT22;69561;37.974;23.708;2023-09-07T11:39:05;27.50;56.90
80250;DHT22;69561;37.974;23.708;2023-09-07T11:41:41;27.50;56.80
80250;DHT22;69561;37.974;23.708;2023-09-07T11:44:08;27.50;56.70
80250;DHT22;69561;37.974;23.708;2023-09-07T11:46:34;27.50;56.70
80250;DHT22;69561;37.974;23.708;2023-09-07T11:49:00;27.50;56.60
80250;DHT22;69561;37.974;23.708;2023-09-07T11:51:26;27.50;56.60
80250;DHT22;69561;37.974;23.708;2023-09-07T11:53:52;27.50;56.50
80250;DHT22;69561;37.974;23.708;2023-09-07T11:56:18;27.50;56.60
80250;DHT22;69561;37.974;23.708;2023-09-07T11:58:44;27.50;56.50
80250;DHT22;69561;37.974;23.708;2023-09-07T12:01:10;27.50;56.50
80250;DHT22;69561;37.974;23.708;2023-09-07T12:03:35;27.50;56.50
80250;DHT22;69561;37.974;23.708;2023-09-07T12:06:01;27.50;56.50
80250;DHT22;69561;37.974;23.708;2023-09-07T12:08:28;27.60;56.50
80250;DHT22;69561;37.974;23.708;2023-09-07T12:10:54;27.60;56.40
80250;DHT22;69561;37.974;23.708;2023-09-07T12:13:19;27.60;56.40
80250;DHT22;69561;37.974;23.708;2023-09-07T12:15:45;27.60;56.30
80250;DHT22;69561;37.974;23.708;2023-09-07T12:18:11;27.60;56.20
80250;DHT22;69561;37.974;23.708;2023-09-07T12:20:37;27.60;56.20
80250;DHT22;69561;37.974;23.708;2023-09-07T12:23:03;27.60;56.10
80250;DHT22;69561;37.974;23.708;2023-09-07T12:25:30;27.60;56.10
80250;DHT22;69561;37.974;23.708;2023-09-07T12:27:57;27.60;56.00
80250;DHT22;69561;37.974;23.708;2023-09-07T12:30:23;27.60;56.00
80250;DHT22;69561;37.974;23.708;2023-09-07T12:32:50;27.60;56.00
80250;DHT22;69561;37.974;23.708;2023-09-07T12:35:16;27.60;57.00
80250;DHT22;69561;37.974;23.708;2023-09-07T12:37:42;27.60;55.90
80250;DHT22;69561;37.974;23.708;2023-09-07T12:40:08;27.60;55.90
80250;DHT22;69561;37.974;23.708;2023-09-07T12:42:45;27.60;55.70
80250;DHT22;69561;37.974;23.708;2023-09-07T12:45:12;27.60;55.60
80250;DHT22;69561;37.974;23.708;2023-09-07T12:47:40;27.50;55.60
80250;DHT22;69561;37.974;23.708;2023-09-07T12:50:06;27.50;55.70
80250;DHT22;69561;37.974;23.708;2023-09-07T12:52:33;27.50;55.50
80250;DHT22;69561;37.974;23.708;2023-09-07T12:55:03;27.50;55.40
80250;DHT22;69561;37.974;23.708;2023-09-07T12:57:29;27.50;55.40
80250;DHT22;69561;37.974;23.708;2023-09-07T12:59:55;27.40;55.30
80250;DHT22;69561;37.974;23.708;2023-09-07T13:02:20;27.40;55.80
80250;DHT22;69561;37.974;23.708;2023-09-07T13:04:46;27.30;55.60
80250;DHT22;69561;37.974;23.708;2023-09-07T13:07:13;27.30;55.60
80250;DHT22;69561;37.974;23.708;2023-09-07T13:09:39;27.30;55.60
80250;DHT22;69561;37.974;23.708;2023-09-07T13:12:05;27.30;55.60
80250;DHT22;69561;37.974;23.708;2023-09-07T13:14:31;27.30;55.60
80250;DHT22;69561;37.974;23.708;2023-09-07T13:16:57;27.30;55.80
80250;DHT22;69561;37.974;23.708;2023-09-07T13:19:23;27.30;55.90
80250;DHT22;69561;37.974;23.708;2023-09-07T13:21:48;27.30;55.90
80250;DHT22;69561;37.974;23.708;2023-09-07T13:24:14;27.20;55.90
80250;DHT22;69561;37.974;23.708;2023-09-07T13:26:40;27.20;55.90
80250;DHT22;69561;37.974;23.708;2023-09-07T13:29:07;27.20;56.00
80250;DHT22;69561;37.974;23.708;2023-09-07T13:31:33;27.20;56.10
80250;DHT22;69561;37.974;23.708;2023-09-07T13:33:58;27.20;56.20
80250;DHT22;69561;37.974;23.708;2023-09-07T13:36:24;27.20;56.30
80250;DHT22;69561;37.974;23.708;2023-09-07T13:38:50;27.20;56.30
80250;DHT22;69561;37.974;23.708;2023-09-07T13:41:16;27.20;56.20
80250;DHT22;69561;37.974;23.708;2023-09-07T13:43:42;27.20;56.00
80250;DHT22;69561;37.974;23.708;2023-09-07T13:46:08;27.20;56.10
80250;DHT22;69561;37.974;23.708;2023-09-07T13:48:34;27.20;56.00
80250;DHT22;69561;37.974;23.708;2023-09-07T13:50:59;27.20;56.00
80250;DHT22;69561;37.974;23.708;2023-09-07T13:53:25;27.10;55.80
80250;DHT22;69561;37.974;23.708;2023-09-07T13:55:51;27.20;55.80
80250;DHT22;69561;37.974;23.708;2023-09-07T13:58:17;27.10;55.70
80250;DHT22;69561;37.974;23.708;2023-09-07T14:00:43;27.10;55.80
80250;DHT22;69561;37.974;23.708;2023-09-07T14:03:09;27.10;55.60
80250;DHT22;69561;37.974;23.708;2023-09-07T14:05:35;27.10;55.50
80250;DHT22;69561;37.974;23.708;2023-09-07T14:08:01;27.10;55.40
80250;DHT22;69561;37.974;23.708;2023-09-07T14:10:26;27.10;55.40
80250;DHT22;69561;37.974;23.708;2023-09-07T14:12:52;27.20;55.30
80250;DHT22;69561;37.974;23.708;2023-09-07T14:15:18;27.10;55.30
80250;DHT22;69561;37.974;23.708;2023-09-07T14:17:44;27.10;55.20
80250;DHT22;69561;37.974;23.708;2023-09-07T14:20:10;27.00;55.20
80250;DHT22;69561;37.974;23.708;2023-09-07T14:22:36;27.00;55.20
80250;DHT22;69561;37.974;23.708;2023-09-07T14:25:02;27.00;55.10
80250;DHT22;69561;37.974;23.708;2023-09-07T14:27:28;27.00;55.30
80250;DHT22;69561;37.974;23.708;2023-09-07T14:29:54;27.00;55.40
80250;DHT22;69561;37.974;23.708;2023-09-07T14:32:20;27.00;55.70
80250;DHT22;69561;37.974;23.708;2023-09-07T14:34:46;27.00;55.70
80250;DHT22;69561;37.974;23.708;2023-09-07T14:37:12;27.00;55.80
80250;DHT22;69561;37.974;23.708;2023-09-07T14:39:38;27.00;55.90
80250;DHT22;69561;37.974;23.708;2023-09-07T14:42:04;27.00;56.00
80250;DHT22;69561;37.974;23.708;2023-09-07T14:44:36;27.00;56.40
80250;DHT22;69561;37.974;23.708;2023-09-07T14:47:02;27.00;56.30
80250;DHT22;69561;37.974;23.708;2023-09-07T14:49:29;27.00;56.30
80250;DHT22;69561;37.974;23.708;2023-09-07T14:51:55;27.00;56.30
80250;DHT22;69561;37.974;23.708;2023-09-07T14:54:21;27.00;56.30
80250;DHT22;69561;37.974;23.708;2023-09-07T14:56:47;27.00;56.30
80250;DHT22;69561;37.974;23.708;2023-09-07T14:59:13;27.00;56.30
80250;DHT22;69561;37.974;23.708;2023-09-07T15:01:39;27.00;56.30
80250;DHT22;69561;37.974;23.708;2023-09-07T15:04:05;27.00;56.30
80250;DHT22;69561;37.974;23.708;2023-09-07T15:06:31;27.00;56.50
80250;DHT22;69561;37.974;23.708;2023-09-07T15:08:59;27.00;56.60
80250;DHT22;69561;37.974;23.708;2023-09-07T15:11:25;27.00;56.60
80250;DHT22;69561;37.974;23.708;2023-09-07T15:13:51;27.00;56.60